Time;durP1;ratioP1;P1;durP2;ratioP2;P2;SDS_P1;SDS_P2;PMS_P1;PMS_P2;Temp;Humidity;BMP_temperature;BMP_pressure;BME280_temperature;BME280_humidity;BME280_pressure;Samples;Min_cycle;Max_cycle;Signal;HPM_P1;HPM_P2
2022/01/14 00:00:20;;;;;;;208.88;36.67;;;5.80;99.90;;;;;;5019803;28;20062;-95
2022/01/14 00:02:49;;;;;;;179.15;36.17;;;5.80;99.90;;;;;;5019296;28;20139;-95
2022/01/14 00:05:14;;;;;;;221.10;36.15;;;6.00;99.90;;;;;;5019758;28;20050;-94
2022/01/14 00:07:40;;;;;;;175.48;34.53;;;5.80;99.90;;;;;;5019194;28;20052;-94
2022/01/14 00:10:07;;;;;;;144.45;32.80;;;5.80;99.90;;;;;;5019406;28;20499;-94
2022/01/14 00:12:39;;;;;;;135.75;31.33;;;5.80;99.90;;;;;;5036253;28;20045;-94
2022/01/14 00:17:50;;;;;;;130.85;32.28;;;5.90;99.90;;;;;;5035952;28;20434;-95
2022/01/14 00:20:19;;;;;;;137.88;32.80;;;6.10;99.90;;;;;;5019111;28;20057;-94
2022/01/14 00:22:45;;;;;;;129.93;31.05;;;5.90;99.90;;;;;;5019340;28;20096;-96
2022/01/14 00:33:10;;;;;;;186.68;37.65;;;6.00;99.90;;;;;;5035391;28;20057;-95
2022/01/14 00:35:41;;;;;;;189.48;36.78;;;5.90;99.90;;;;;;5018938;28;20049;-94
2022/01/14 00:38:07;;;;;;;183.30;38.75;;;5.90;99.90;;;;;;5035136;28;20479;-96
2022/01/14 00:40:34;;;;;;;207.52;37.88;;;5.90;99.90;;;;;;5020538;28;20053;-95
2022/01/14 00:43:00;;;;;;;201.73;38.85;;;5.90;99.90;;;;;;5019126;28;20053;-95
2022/01/14 00:45:26;;;;;;;167.52;38.38;;;5.90;99.90;;;;;;5019064;28;20569;-93
2022/01/14 00:47:51;;;;;;;170.32;37.35;;;5.90;99.90;;;;;;5035541;28;20057;-96
2022/01/14 00:50:18;;;;;;;178.43;36.90;;;5.90;99.90;;;;;;5019765;28;20418;-95
2022/01/14 00:52:46;;;;;;;157.00;37.85;;;5.90;99.90;;;;;;5019224;28;20053;-95
2022/01/14 00:55:15;;;;;;;166.10;38.15;;;5.90;99.90;;;;;;5017980;28;20049;-95
2022/01/14 01:00:34;;;;;;;175.80;37.33;;;6.00;99.90;;;;;;5034831;28;20119;-94
2022/01/14 01:03:01;;;;;;;167.05;38.25;;;6.00;99.90;;;;;;5020140;28;20060;-96
2022/01/14 01:05:27;;;;;;;170.32;37.13;;;5.80;99.90;;;;;;5020131;28;20065;-94
2022/01/14 01:08:06;;;;;;;185.38;38.88;;;5.80;99.90;;;;;;5018364;28;20057;-94
2022/01/14 01:10:33;;;;;;;196.35;39.10;;;5.80;99.90;;;;;;5018495;28;20062;-94
2022/01/14 01:13:11;;;;;;;159.93;36.25;;;5.90;99.90;;;;;;5017895;28;20049;-94
2022/01/14 01:15:36;;;;;;;175.52;37.08;;;5.80;99.90;;;;;;5018160;28;20064;-95
2022/01/14 01:18:02;;;;;;;173.85;39.00;;;5.80;99.90;;;;;;5018067;28;20057;-94
2022/01/14 01:20:28;;;;;;;188.60;38.00;;;5.90;99.90;;;;;;5018173;28;20054;-95
2022/01/14 01:22:54;;;;;;;146.27;35.88;;;5.80;99.90;;;;;;5018220;28;20406;-94
2022/01/14 01:25:23;;;;;;;158.50;36.10;;;5.90;99.90;;;;;;5018094;28;20592;-96
2022/01/14 01:27:51;;;;;;;157.75;36.25;;;5.90;99.90;;;;;;5035334;28;20053;-96
2022/01/14 01:32:59;;;;;;;173.30;36.58;;;5.80;99.90;;;;;;5034693;28;20057;-95
2022/01/14 01:35:25;;;;;;;163.10;36.05;;;5.90;99.90;;;;;;5018648;28;20057;-95
2022/01/14 01:37:51;;;;;;;173.68;37.20;;;5.70;99.90;;;;;;5035081;28;20092;-94
2022/01/14 01:40:19;;;;;;;156.90;35.05;;;5.70;99.90;;;;;;5034084;28;20092;-95
2022/01/14 01:42:46;;;;;;;172.77;37.45;;;5.80;99.90;;;;;;5034359;28;20045;-94
2022/01/14 01:45:21;;;;;;;166.88;36.65;;;5.80;99.90;;;;;;5017762;28;20068;-95
2022/01/14 01:47:50;;;;;;;143.45;34.60;;;5.60;99.90;;;;;;5017775;28;20096;-94
2022/01/14 01:50:20;;;;;;;164.02;36.17;;;5.70;99.90;;;;;;5017808;28;20080;-95
2022/01/14 01:52:46;;;;;;;180.15;36.67;;;5.70;99.90;;;;;;5017486;28;20042;-95
2022/01/14 01:55:13;;;;;;;174.02;36.53;;;5.80;99.90;;;;;;5017657;28;20045;-95
2022/01/14 01:57:42;;;;;;;177.75;35.90;;;6.00;99.90;;;;;;5033949;28;20057;-95
2022/01/14 02:00:12;;;;;;;181.38;36.10;;;5.70;99.90;;;;;;5017718;28;20166;-95
2022/01/14 02:02:38;;;;;;;155.25;33.60;;;5.70;99.90;;;;;;5033467;28;20131;-95
2022/01/14 02:05:05;;;;;;;161.55;35.80;;;5.70;99.90;;;;;;5033907;28;20053;-95
2022/01/14 02:07:32;;;;;;;170.13;35.67;;;5.70;99.90;;;;;;5017294;28;20057;-95
2022/01/14 02:09:59;;;;;;;156.60;34.60;;;5.80;99.90;;;;;;5017515;28;20486;-96
2022/01/14 02:12:26;;;;;;;171.55;35.75;;;5.80;99.90;;;;;;5017126;28;20045;-94
2022/01/14 02:17:32;;;;;;;172.18;35.33;;;6.10;99.90;;;;;;5034058;28;20050;-96
2022/01/14 02:22:55;;;;;;;176.88;34.22;;;5.70;99.90;;;;;;5033530;28;20189;-95
2022/01/14 02:25:29;;;;;;;155.02;34.40;;;5.70;99.90;;;;;;5033816;28;20454;-95
2022/01/14 02:28:06;;;;;;;144.20;33.03;;;5.70;99.90;;;;;;5017236;28;20057;-95
2022/01/14 02:30:33;;;;;;;158.48;34.65;;;5.70;99.90;;;;;;5017246;28;20508;-96
2022/01/14 02:32:59;;;;;;;153.30;34.05;;;5.60;99.90;;;;;;5018409;28;20115;-95
2022/01/14 02:35:25;;;;;;;137.88;33.72;;;5.70;99.90;;;;;;5017277;28;20457;-94
2022/01/14 02:37:52;;;;;;;175.23;35.78;;;5.80;99.90;;;;;;5016286;28;20065;-95
2022/01/14 02:40:19;;;;;;;138.18;34.65;;;5.70;99.90;;;;;;5032892;28;20057;-94
2022/01/14 02:42:47;;;;;;;167.73;33.75;;;5.70;99.90;;;;;;5016702;28;20497;-95
2022/01/14 02:45:14;;;;;;;141.57;34.30;;;5.70;99.90;;;;;;5016318;28;20127;-95
2022/01/14 02:47:40;;;;;;;136.65;31.98;;;5.70;99.90;;;;;;5033062;28;20080;-94
2022/01/14 02:50:13;;;;;;;127.55;32.47;;;5.70;99.90;;;;;;5016882;28;20162;-96
2022/01/14 02:55:19;;;;;;;139.10;31.95;;;5.70;99.90;;;;;;5033119;28;20138;-96
2022/01/14 02:57:51;;;;;;;129.75;32.13;;;5.70;99.90;;;;;;5016296;28;20096;-94
2022/01/14 03:00:18;;;;;;;124.97;29.70;;;5.70;99.90;;;;;;5016545;28;20056;-94
2022/01/14 03:02:46;;;;;;;122.75;30.77;;;5.70;99.90;;;;;;5016344;28;20056;-95
2022/01/14 03:05:13;;;;;;;109.95;29.40;;;5.70;99.90;;;;;;5016523;28;20136;-95
2022/01/14 03:07:40;;;;;;;120.15;30.13;;;5.90;99.90;;;;;;5032626;28;20059;-95
2022/01/14 03:10:07;;;;;;;109.03;29.55;;;5.70;99.90;;;;;;5032681;28;20103;-96
2022/01/14 03:12:34;;;;;;;108.40;29.80;;;5.70;99.90;;;;;;5016701;28;20144;-95
2022/01/14 03:15:00;;;;;;;123.80;30.55;;;5.70;99.90;;;;;;5033258;28;20410;-96
2022/01/14 03:17:28;;;;;;;112.05;30.67;;;5.70;99.90;;;;;;5032013;28;20496;-95
2022/01/14 03:19:53;;;;;;;123.15;30.45;;;5.70;99.90;;;;;;5016549;28;20057;-95
2022/01/14 03:22:30;;;;;;;118.18;30.60;;;5.70;99.90;;;;;;5016108;28;20060;-95
2022/01/14 03:27:23;;;;;;;111.07;30.77;;;5.80;99.90;;;;;;5033231;28;20054;-96
2022/01/14 03:29:48;;;;;;;114.57;31.17;;;5.80;99.90;;;;;;5016204;28;20060;-94
2022/01/14 03:32:15;;;;;;;117.45;31.92;;;5.70;99.90;;;;;;5032917;28;20054;-95
2022/01/14 03:34:40;;;;;;;123.07;31.13;;;5.70;99.90;;;;;;5016535;28;20091;-96
2022/01/14 03:37:06;;;;;;;108.82;29.48;;;5.80;99.90;;;;;;5016546;28;20057;-94
2022/01/14 03:39:32;;;;;;;114.43;33.50;;;5.70;99.90;;;;;;5016687;28;20080;-95
2022/01/14 03:41:58;;;;;;;125.93;32.08;;;5.80;99.90;;;;;;5015542;28;20049;-95
2022/01/14 03:44:23;;;;;;;112.75;32.35;;;5.70;99.90;;;;;;5016640;28;20123;-94
2022/01/14 03:46:49;;;;;;;113.20;31.33;;;5.70;99.90;;;;;;5015915;28;20062;-95
2022/01/14 03:49:15;;;;;;;109.57;31.73;;;5.80;99.90;;;;;;5016031;28;20057;-95
2022/01/14 03:51:43;;;;;;;108.57;30.08;;;5.80;99.90;;;;;;5016756;28;20061;-94
2022/01/14 03:54:10;;;;;;;113.50;31.77;;;5.70;99.90;;;;;;5016228;28;20054;-96
2022/01/14 03:56:35;;;;;;;102.47;30.67;;;5.90;99.90;;;;;;5017537;28;20053;-95
2022/01/14 03:59:04;;;;;;;115.68;31.48;;;5.80;99.90;;;;;;5017264;28;20514;-95
2022/01/14 04:01:30;;;;;;;131.73;32.00;;;5.90;99.90;;;;;;5015904;28;20079;-96
2022/01/14 04:03:56;;;;;;;118.65;29.88;;;5.70;99.90;;;;;;5033496;28;20077;-94
2022/01/14 04:06:22;;;;;;;117.50;31.23;;;5.90;99.90;;;;;;5034618;28;20046;-95
2022/01/14 04:08:47;;;;;;;131.07;30.80;;;5.70;99.90;;;;;;5017042;28;20403;-96
2022/01/14 04:11:13;;;;;;;113.20;29.30;;;5.70;99.90;;;;;;5016290;28;20041;-96
2022/01/14 04:13:48;;;;;;;119.45;29.98;;;5.70;99.90;;;;;;5015473;28;20147;-96
2022/01/14 04:16:15;;;;;;;121.60;29.73;;;5.70;99.90;;;;;;5033637;28;20045;-94
2022/01/14 04:18:44;;;;;;;130.38;30.00;;;5.70;99.90;;;;;;5033156;28;20085;-96
2022/01/14 04:21:09;;;;;;;133.00;30.85;;;5.70;99.90;;;;;;5015713;28;20046;-95
2022/01/14 04:23:35;;;;;;;109.15;29.77;;;5.70;99.90;;;;;;5015891;28;20054;-95
2022/01/14 04:26:01;;;;;;;125.13;29.42;;;5.60;99.90;;;;;;5015389;28;20510;-94
2022/01/14 04:28:30;;;;;;;139.23;30.95;;;5.60;99.90;;;;;;5032350;28;20088;-95
2022/01/14 04:30:56;;;;;;;120.68;30.08;;;5.70;99.90;;;;;;5019337;28;20053;-95
2022/01/14 04:33:24;;;;;;;140.48;31.23;;;5.80;99.90;;;;;;5018966;28;20061;-95
2022/01/14 04:35:50;;;;;;;116.28;29.35;;;5.50;99.90;;;;;;5035943;28;20140;-95
2022/01/14 04:38:16;;;;;;;130.43;31.55;;;5.50;99.90;;;;;;5035792;28;20052;-95
2022/01/14 04:40:42;;;;;;;127.72;30.95;;;5.60;99.90;;;;;;5036436;28;20088;-94
2022/01/14 04:43:08;;;;;;;136.65;32.03;;;5.80;99.90;;;;;;5019348;28;20203;-95
2022/01/14 04:48:09;;;;;;;142.75;32.72;;;5.60;99.90;;;;;;5036423;28;20060;-96
2022/01/14 04:50:35;;;;;;;134.20;31.95;;;5.60;99.90;;;;;;5019083;28;20067;-96
2022/01/14 04:53:02;;;;;;;128.50;30.95;;;5.70;99.90;;;;;;5019334;28;20144;-96
2022/01/14 04:55:28;;;;;;;129.20;30.45;;;5.60;99.90;;;;;;5052857;28;20140;-94
2022/01/14 04:57:55;;;;;;;140.27;33.25;;;5.60;99.90;;;;;;5018733;28;20084;-95
2022/01/14 05:00:26;;;;;;;136.63;32.50;;;5.60;99.90;;;;;;5019148;28;20372;-95
2022/01/14 05:02:54;;;;;;;104.70;29.13;;;5.40;99.90;;;;;;5019852;28;20042;-94
2022/01/14 05:05:22;;;;;;;123.05;31.63;;;5.50;99.90;;;;;;5018808;28;20069;-95
2022/01/14 05:07:49;;;;;;;134.02;32.05;;;5.60;99.90;;;;;;5018351;28;20092;-94
2022/01/14 05:10:33;;;;;;;116.85;29.80;;;5.60;99.90;;;;;;5018251;28;20049;-95
2022/01/14 05:13:01;;;;;;;110.85;30.25;;;5.60;99.90;;;;;;5019248;28;20045;-95
2022/01/14 05:15:27;;;;;;;98.82;29.85;;;5.60;99.90;;;;;;5019746;28;20104;-95
2022/01/14 05:17:53;;;;;;;121.10;31.17;;;5.60;99.90;;;;;;5019500;28;20057;-96
2022/01/14 05:20:19;;;;;;;110.40;32.13;;;5.60;99.90;;;;;;5035263;28;20057;-94
2022/01/14 05:22:45;;;;;;;114.43;31.75;;;5.70;99.90;;;;;;5035049;28;20090;-96
2022/01/14 05:25:13;;;;;;;107.63;31.00;;;5.60;99.90;;;;;;5034642;28;20453;-94
2022/01/14 05:27:40;;;;;;;120.82;30.73;;;5.80;99.90;;;;;;5018426;28;20064;-94
2022/01/14 05:30:08;;;;;;;119.15;30.02;;;5.90;99.90;;;;;;5018580;28;20049;-93
2022/01/14 05:32:34;;;;;;;102.55;28.40;;;5.60;99.90;;;;;;5019101;28;20060;-96
2022/01/14 05:35:00;;;;;;;102.25;29.45;;;5.50;99.90;;;;;;5019110;28;20494;-96
2022/01/14 05:37:26;;;;;;;92.93;27.75;;;5.50;99.90;;;;;;5017793;28;20050;-95
2022/01/14 05:39:52;;;;;;;103.70;29.45;;;5.50;99.90;;;;;;5033819;28;20050;-95
2022/01/14 05:42:21;;;;;;;102.40;29.40;;;5.50;99.90;;;;;;5017823;28;20111;-95
2022/01/14 05:44:47;;;;;;;89.85;27.38;;;5.70;99.90;;;;;;5034873;28;20422;-94
2022/01/14 05:47:12;;;;;;;96.03;27.48;;;5.40;99.90;;;;;;5017623;28;20042;-95
2022/01/14 05:49:38;;;;;;;107.88;28.90;;;5.50;99.90;;;;;;5034575;28;20127;-95
2022/01/14 05:52:04;;;;;;;95.90;27.80;;;5.50;99.90;;;;;;5033969;28;20057;-96
2022/01/14 05:54:30;;;;;;;83.18;27.13;;;5.50;99.90;;;;;;5033656;28;20056;-94
2022/01/14 05:56:56;;;;;;;88.88;29.15;;;5.50;99.90;;;;;;5018116;28;20060;-94
2022/01/14 05:59:22;;;;;;;88.90;27.00;;;5.50;99.90;;;;;;5018494;28;20061;-95
2022/01/14 06:01:49;;;;;;;91.97;26.92;;;5.50;99.90;;;;;;5033885;28;20104;-96
2022/01/14 06:04:15;;;;;;;87.50;26.13;;;5.50;99.90;;;;;;5017224;28;20088;-94
2022/01/14 06:06:41;;;;;;;75.30;24.95;;;5.50;99.90;;;;;;5017778;28;20097;-94
2022/01/14 06:09:07;;;;;;;92.07;27.95;;;5.40;99.90;;;;;;5017463;28;20144;-94
2022/01/14 06:11:32;;;;;;;83.45;27.08;;;5.70;99.90;;;;;;5017793;28;20051;-94
2022/01/14 06:13:58;;;;;;;83.22;26.35;;;5.60;99.90;;;;;;5033305;28;20111;-95
2022/01/14 06:16:24;;;;;;;76.38;25.73;;;5.70;99.90;;;;;;5033531;28;20084;-94
2022/01/14 06:18:50;;;;;;;75.85;24.38;;;5.50;99.90;;;;;;5033520;28;20499;-95
2022/01/14 06:21:16;;;;;;;79.07;25.40;;;5.50;99.90;;;;;;5016944;28;20045;-94
2022/01/14 06:23:42;;;;;;;81.68;26.20;;;5.50;99.90;;;;;;5017090;28;20049;-94
2022/01/14 06:26:08;;;;;;;81.15;26.55;;;5.50;99.90;;;;;;5017286;28;20196;-95
2022/01/14 06:28:34;;;;;;;82.40;27.52;;;5.40;99.90;;;;;;5033704;28;20050;-94
2022/01/14 06:31:00;;;;;;;73.40;25.60;;;5.50;99.90;;;;;;5016940;28;20049;-94
2022/01/14 06:33:26;;;;;;;77.25;25.67;;;5.50;99.90;;;;;;5016766;28;20110;-94
2022/01/14 06:35:51;;;;;;;76.15;26.38;;;5.60;99.90;;;;;;5016738;28;20065;-94
2022/01/14 06:38:19;;;;;;;78.82;26.33;;;5.50;99.90;;;;;;5016646;28;20111;-94
2022/01/14 06:40:46;;;;;;;70.78;26.27;;;5.70;99.90;;;;;;5016413;28;20056;-94
2022/01/14 06:43:16;;;;;;;71.10;27.05;;;5.50;99.90;;;;;;5016762;28;20065;-95
2022/01/14 06:45:44;;;;;;;74.85;26.35;;;5.50;99.90;;;;;;5016732;28;20099;-94
2022/01/14 06:48:10;;;;;;;60.60;23.85;;;5.60;99.90;;;;;;5032943;28;20049;-94
2022/01/14 06:50:36;;;;;;;74.78;26.25;;;5.90;99.90;;;;;;5016912;28;20561;-95
2022/01/14 06:53:03;;;;;;;64.35;25.35;;;5.60;99.90;;;;;;5032429;28;20152;-94
2022/01/14 06:55:28;;;;;;;61.50;25.10;;;5.60;99.90;;;;;;5016777;28;20060;-95
2022/01/14 06:57:54;;;;;;;64.80;25.75;;;5.60;99.90;;;;;;5032766;28;20045;-94
2022/01/14 07:00:21;;;;;;;54.00;24.52;;;5.60;99.90;;;;;;5016541;28;20064;-95
2022/01/14 07:02:47;;;;;;;60.10;24.40;;;5.70;99.90;;;;;;5016778;28;20057;-95
2022/01/14 07:05:13;;;;;;;44.13;22.52;;;5.90;99.90;;;;;;5016583;28;20049;-95
2022/01/14 07:07:39;;;;;;;57.80;24.58;;;5.70;99.90;;;;;;5032936;28;20061;-95
2022/01/14 07:10:07;;;;;;;59.58;23.60;;;5.60;99.90;;;;;;5016488;28;20506;-95
2022/01/14 07:12:37;;;;;;;49.15;22.42;;;5.60;99.90;;;;;;5016466;28;20058;-95
2022/01/14 07:15:11;;;;;;;52.35;22.92;;;5.80;99.90;;;;;;5016931;28;20107;-95
2022/01/14 07:17:38;;;;;;;58.25;24.35;;;5.60;99.90;;;;;;5032583;28;20049;-95
2022/01/14 07:20:11;;;;;;;42.33;22.58;;;5.60;99.90;;;;;;5017120;28;20510;-95
2022/01/14 07:22:39;;;;;;;48.47;23.02;;;5.70;99.90;;;;;;5015689;28;20089;-95
2022/01/14 07:25:05;;;;;;;47.92;23.83;;;5.70;99.90;;;;;;5032902;28;20103;-95
2022/01/14 07:27:32;;;;;;;44.13;23.20;;;5.60;99.90;;;;;;5016891;28;20061;-95
2022/01/14 07:29:58;;;;;;;57.13;24.13;;;5.80;99.90;;;;;;5016314;28;20045;-95
2022/01/14 07:32:24;;;;;;;51.13;24.83;;;5.80;99.90;;;;;;5016167;28;20094;-94
2022/01/14 07:34:50;;;;;;;47.88;22.33;;;5.60;99.90;;;;;;5032446;28;20053;-94
2022/01/14 07:37:16;;;;;;;48.20;22.98;;;5.60;99.90;;;;;;5015993;28;20061;-95
2022/01/14 07:39:42;;;;;;;48.40;23.35;;;5.40;99.90;;;;;;5015949;28;20045;-95
2022/01/14 07:42:08;;;;;;;54.95;23.80;;;5.60;99.90;;;;;;5015670;28;20548;-95
2022/01/14 07:44:34;;;;;;;41.80;22.45;;;5.70;99.90;;;;;;5015927;28;20059;-94
2022/01/14 07:47:00;;;;;;;49.13;23.48;;;5.70;99.90;;;;;;5015885;28;20057;-95
2022/01/14 07:49:26;;;;;;;51.88;23.75;;;5.70;99.90;;;;;;5015791;28;20063;-94
2022/01/14 07:51:52;;;;;;;53.53;23.25;;;5.70;99.90;;;;;;5015668;28;20081;-95
2022/01/14 07:54:17;;;;;;;42.55;23.52;;;5.60;99.90;;;;;;5016218;28;20400;-95
2022/01/14 07:56:50;;;;;;;51.58;22.92;;;5.80;99.90;;;;;;5016081;28;20056;-93
2022/01/14 07:59:22;;;;;;;48.70;21.73;;;5.60;99.90;;;;;;5016036;28;20052;-94
2022/01/14 08:01:48;;;;;;;;;;;5.80;99.90;;;;;;5016043;28;20137;-94
2022/01/14 08:04:15;;;;;;;43.05;22.05;;;5.80;99.90;;;;;;5018524;28;19925;-94
2022/01/14 08:06:46;;;;;;;42.00;22.73;;;5.70;99.90;;;;;;5019325;28;20503;-95
2022/01/14 08:09:13;;;;;;;46.38;22.42;;;5.70;99.90;;;;;;5019607;28;20144;-94
2022/01/14 08:11:39;;;;;;;46.47;22.08;;;6.00;99.90;;;;;;5019431;28;20052;-94
2022/01/14 08:14:05;;;;;;;44.40;21.73;;;5.80;99.90;;;;;;5036010;28;20406;-95
2022/01/14 08:16:31;;;;;;;47.58;21.92;;;5.90;99.90;;;;;;5019272;28;20053;-96
2022/01/14 08:18:56;;;;;;;47.83;22.27;;;5.80;99.90;;;;;;5018922;28;20402;-95
2022/01/14 08:21:22;;;;;;;44.08;22.52;;;5.90;99.90;;;;;;5019110;28;20054;-94
2022/01/14 08:23:50;;;;;;;43.85;22.17;;;5.80;99.90;;;;;;5020653;28;20546;-94
2022/01/14 08:26:16;;;;;;;37.65;19.95;;;5.90;99.90;;;;;;5029789;28;20089;-94
2022/01/14 08:28:42;;;;;;;42.35;21.63;;;5.90;99.90;;;;;;5020226;28;20049;-94
2022/01/14 08:31:08;;;;;;;48.70;20.75;;;5.90;99.90;;;;;;5035815;28;20285;-95
2022/01/14 08:33:33;;;;;;;43.95;19.58;;;5.90;99.90;;;;;;5035691;28;20549;-95
2022/01/14 08:35:59;;;;;;;39.40;20.15;;;5.90;99.90;;;;;;5018834;28;20495;-95
2022/01/14 08:38:25;;;;;;;40.78;20.80;;;6.10;99.90;;;;;;5034877;28;20136;-95
2022/01/14 08:40:51;;;;;;;49.03;20.65;;;6.10;99.90;;;;;;5018947;28;20092;-95
2022/01/14 08:43:17;;;;;;;39.88;19.05;;;6.20;99.90;;;;;;5018832;28;20049;-94
2022/01/14 08:45:42;;;;;;;44.53;19.17;;;6.00;99.90;;;;;;5019237;28;20487;-95
2022/01/14 08:48:08;;;;;;;42.08;18.98;;;6.10;99.90;;;;;;5018704;28;20156;-95
2022/01/14 08:50:36;;;;;;;33.92;19.17;;;6.40;99.90;;;;;;5018724;28;20132;-96
2022/01/14 08:53:04;;;;;;;41.45;18.88;;;6.20;99.90;;;;;;5018760;28;20049;-95
2022/01/14 08:55:30;;;;;;;33.92;17.35;;;6.20;99.90;;;;;;5018724;28;20525;-95
2022/01/14 08:57:56;;;;;;;38.25;16.90;;;6.20;99.90;;;;;;5018821;28;20305;-94
2022/01/14 09:00:24;;;;;;;41.67;16.92;;;6.20;99.90;;;;;;5018760;28;20053;-93
2022/01/14 09:02:51;;;;;;;32.30;17.17;;;6.20;99.90;;;;;;5018135;28;20049;-94
2022/01/14 09:05:17;;;;;;;40.47;18.30;;;6.30;99.90;;;;;;5018691;28;20069;-95
2022/01/14 09:07:43;;;;;;;32.42;17.15;;;6.20;99.90;;;;;;5018735;28;20150;-95
2022/01/14 09:10:09;;;;;;;34.78;17.35;;;6.30;99.90;;;;;;5018472;28;20406;-95
2022/01/14 09:12:36;;;;;;;38.97;17.00;;;6.30;99.90;;;;;;5018432;28;20049;-94
2022/01/14 09:15:03;;;;;;;38.90;16.15;;;6.30;99.90;;;;;;5017253;28;20057;-94
2022/01/14 09:17:28;;;;;;;35.80;17.02;;;6.40;99.90;;;;;;5018347;28;20061;-95
2022/01/14 09:19:54;;;;;;;38.75;16.60;;;6.40;99.90;;;;;;5034662;28;20053;-95
2022/01/14 09:22:20;;;;;;;36.15;16.42;;;6.40;99.90;;;;;;5034527;28;20057;-94
2022/01/14 09:24:47;;;;;;;35.40;15.90;;;6.50;99.90;;;;;;5018155;28;20049;-95
2022/01/14 09:27:13;;;;;;;34.33;16.52;;;6.50;99.90;;;;;;5034447;28;20053;-95
2022/01/14 09:29:39;;;;;;;33.15;15.43;;;6.50;99.90;;;;;;5017992;28;20052;-95
2022/01/14 09:32:06;;;;;;;36.05;16.15;;;6.70;99.90;;;;;;5018201;28;20114;-95
2022/01/14 09:34:33;;;;;;;39.30;14.95;;;6.60;99.90;;;;;;5017825;28;20139;-96
2022/01/14 09:36:58;;;;;;;33.72;14.25;;;6.60;99.90;;;;;;5017644;28;20129;-94
2022/01/14 09:39:24;;;;;;;25.77;13.90;;;6.60;99.90;;;;;;5017234;28;20049;-95
2022/01/14 09:41:50;;;;;;;35.17;15.20;;;6.70;99.90;;;;;;5017533;28;20207;-95
2022/01/14 09:44:17;;;;;;;35.83;14.98;;;6.70;99.90;;;;;;5017560;28;20056;-95
2022/01/14 09:46:43;;;;;;;30.45;13.88;;;6.70;99.90;;;;;;5033849;28;20054;-96
2022/01/14 09:49:09;;;;;;;36.15;15.32;;;6.80;99.90;;;;;;5017486;28;20064;-95
2022/01/14 09:51:34;;;;;;;31.05;15.20;;;6.90;99.90;;;;;;5017173;28;20057;-95
2022/01/14 09:54:02;;;;;;;33.95;15.18;;;6.80;99.90;;;;;;5033937;28;20053;-94
2022/01/14 09:56:28;;;;;;;33.53;15.98;;;6.90;99.90;;;;;;5017862;28;20057;-94
2022/01/14 09:58:53;;;;;;;34.03;14.77;;;6.90;99.90;;;;;;5033651;28;20461;-94
2022/01/14 10:01:22;;;;;;;31.38;14.38;;;6.90;99.90;;;;;;5017187;28;20092;-95
2022/01/14 10:03:53;;;;;;;28.50;14.00;;;7.20;99.90;;;;;;5017374;28;20053;-94
2022/01/14 10:06:38;;;;;;;28.30;13.40;;;7.00;99.90;;;;;;5017073;28;20111;-93
2022/01/14 10:09:11;;;;;;;28.23;13.88;;;7.20;99.90;;;;;;5033944;28;20064;-95
2022/01/14 10:11:42;;;;;;;32.55;13.60;;;7.10;99.90;;;;;;5033861;28;20046;-94
2022/01/14 10:14:12;;;;;;;28.30;13.52;;;7.10;99.90;;;;;;5016933;28;20057;-96
2022/01/14 10:16:43;;;;;;;27.53;12.23;;;7.10;99.90;;;;;;5017043;28;20067;-94
2022/01/14 10:19:43;;;;;;;33.83;14.02;;;7.10;99.90;;;;;;5016722;28;20288;-95
2022/01/14 10:22:24;;;;;;;26.35;12.63;;;7.20;99.90;;;;;;4960090;28;20090;-95
2022/01/14 10:24:55;;;;;;;28.70;12.00;;;7.20;99.90;;;;;;4993132;28;20050;-94
2022/01/14 10:27:38;;;;;;;21.80;11.20;;;7.30;99.90;;;;;;4992727;28;20066;-95
2022/01/14 10:30:10;;;;;;;26.15;11.88;;;7.30;99.90;;;;;;4960703;28;20146;-94
2022/01/14 10:32:37;;;;;;;27.70;11.85;;;7.30;99.90;;;;;;4960575;28;20054;-95
2022/01/14 10:35:08;;;;;;;26.65;10.95;;;7.40;99.90;;;;;;4993026;28;20074;-94
2022/01/14 10:37:37;;;;;;;22.05;10.18;;;7.40;99.90;;;;;;4992718;28;20116;-94
2022/01/14 10:40:13;;;;;;;25.73;10.50;;;7.60;99.90;;;;;;4992427;28;20054;-95
2022/01/14 10:42:41;;;;;;;25.95;10.95;;;7.50;99.90;;;;;;4992333;28;20089;-94
2022/01/14 10:45:17;;;;;;;27.00;10.75;;;7.50;99.90;;;;;;4992936;28;20055;-95
2022/01/14 10:47:57;;;;;;;28.17;9.77;;;7.50;99.90;;;;;;4992626;28;20046;-94
2022/01/14 10:50:43;;;;;;;21.90;9.02;;;7.60;99.90;;;;;;4960268;28;20590;-95
2022/01/14 10:53:16;;;;;;;23.58;9.38;;;7.50;99.90;;;;;;4960127;28;20586;-94
2022/01/14 10:55:45;;;;;;;23.40;9.90;;;7.60;99.90;;;;;;4960550;28;20051;-94
2022/01/14 10:58:14;;;;;;;28.20;8.90;;;7.60;99.90;;;;;;5014943;28;20453;-94
2022/01/14 11:00:46;;;;;;;21.70;8.32;;;7.70;99.90;;;;;;5032727;28;20561;-93
2022/01/14 11:03:12;;;;;;;21.23;8.10;;;7.60;99.90;;;;;;5032586;28;20045;-95
2022/01/14 11:05:38;;;;;;;20.60;8.88;;;7.70;99.90;;;;;;5016298;28;20055;-96
2022/01/14 11:08:04;;;;;;;19.95;9.00;;;7.80;99.90;;;;;;5016459;28;20144;-94
2022/01/14 11:10:33;;;;;;;17.63;7.78;;;7.60;99.90;;;;;;5016404;28;20554;-94
2022/01/14 11:13:01;;;;;;;19.95;8.00;;;7.60;99.90;;;;;;5032452;28;20049;-95
2022/01/14 11:15:29;;;;;;;17.55;6.38;;;7.60;99.90;;;;;;5016369;28;20475;-92
2022/01/14 11:17:59;;;;;;;19.20;7.20;;;7.60;99.90;;;;;;5032496;28;20057;-93
2022/01/14 11:20:37;;;;;;;16.25;6.90;;;7.70;99.90;;;;;;5015437;28;20560;-95
2022/01/14 11:23:15;;;;;;;16.75;7.18;;;7.60;99.90;;;;;;5016479;28;20054;-95
2022/01/14 11:25:58;;;;;;;18.88;7.63;;;7.60;99.90;;;;;;5032403;28;20056;-95
2022/01/14 11:28:28;;;;;;;20.30;8.10;;;7.60;99.90;;;;;;5016226;28;20057;-94
2022/01/14 11:30:54;;;;;;;21.27;7.50;;;7.60;99.90;;;;;;5015909;28;20057;-94
2022/01/14 11:33:19;;;;;;;18.60;8.15;;;7.60;99.90;;;;;;5016192;28;20064;-95
2022/01/14 11:36:14;;;;;;;14.75;6.97;;;7.70;99.90;;;;;;5016259;28;20052;-95
2022/01/14 11:38:46;;;;;;;14.32;6.35;;;7.70;99.90;;;;;;4961073;28;20062;-95
2022/01/14 11:41:14;;;;;;;;;;;7.60;99.90;;;;;;4964190;28;20057;-94
2022/01/14 11:43:42;;;;;;;19.73;5.70;;;7.70;99.90;;;;;;4980511;28;19928;-94
2022/01/14 11:46:11;;;;;;;20.23;5.68;;;7.50;99.90;;;;;;4964272;28;20060;-94
2022/01/14 11:48:52;;;;;;;15.60;4.93;;;7.60;99.90;;;;;;4964466;28;20499;-95
2022/01/14 11:51:18;;;;;;;13.30;4.75;;;7.50;99.90;;;;;;4979430;28;20050;-96
2022/01/14 11:53:48;;;;;;;13.27;4.95;;;7.50;99.90;;;;;;4963663;28;20050;-95
2022/01/14 11:56:32;;;;;;;17.95;5.93;;;7.50;99.90;;;;;;4963577;28;20090;-95
2022/01/14 11:59:21;;;;;;;21.08;5.63;;;7.50;99.90;;;;;;4963356;28;20050;-95
2022/01/14 12:01:52;;;;;;;19.33;8.50;;;7.50;99.90;;;;;;4963451;28;20116;-93
2022/01/14 12:04:18;;;;;;;15.50;4.47;;;7.50;99.90;;;;;;4963145;28;20054;-94
2022/01/14 12:06:55;;;;;;;14.00;4.40;;;7.50;99.90;;;;;;4963649;28;20296;-95
2022/01/14 12:09:24;;;;;;;15.10;4.72;;;7.50;99.90;;;;;;4963500;28;20078;-94
2022/01/14 12:12:24;;;;;;;16.08;5.03;;;7.50;99.90;;;;;;4979389;28;20189;-94
2022/01/14 12:15:04;;;;;;;22.48;5.05;;;7.60;99.90;;;;;;4984308;28;20057;-95
2022/01/14 12:17:41;;;;;;;20.90;5.50;;;7.40;99.90;;;;;;5021880;28;20056;-94
2022/01/14 12:20:17;;;;;;;19.70;5.60;;;7.50;99.90;;;;;;5019542;28;20056;-94
2022/01/14 12:23:07;;;;;;;19.05;4.60;;;7.50;99.90;;;;;;5018905;28;20045;-95
2022/01/14 12:25:40;;;;;;;11.13;3.90;;;7.60;99.90;;;;;;5019432;28;20056;-95
2022/01/14 12:28:21;;;;;;;16.27;4.85;;;7.60;99.90;;;;;;5019508;28;20092;-95
2022/01/14 12:31:01;;;;;;;17.52;4.50;;;7.60;99.90;;;;;;5019210;28;20147;-96
2022/01/14 12:33:49;;;;;;;14.35;4.13;;;7.60;99.90;;;;;;5019270;28;20061;-96
2022/01/14 12:36:20;;;;;;;15.60;4.22;;;7.60;99.90;;;;;;5019209;28;20046;-95
2022/01/14 12:38:47;;;;;;;12.25;5.15;;;7.60;99.90;;;;;;5018622;28;20049;-95
2022/01/14 12:41:20;;;;;;;15.25;4.70;;;7.90;99.90;;;;;;5018705;28;20049;-96
2022/01/14 12:43:56;;;;;;;9.68;4.32;;;7.80;99.90;;;;;;5018828;28;20052;-93
2022/01/14 12:49:29;;;;;;;15.82;4.55;;;7.60;99.90;;;;;;5034500;28;20158;-94
2022/01/14 12:52:03;;;;;;;14.63;4.70;;;7.70;99.90;;;;;;5034988;28;20061;-95
2022/01/14 12:54:35;;;;;;;14.23;4.18;;;7.60;99.90;;;;;;5018473;28;20133;-94
2022/01/14 12:57:02;;;;;;;15.45;4.57;;;7.60;99.90;;;;;;5018726;28;20046;-95
2022/01/14 12:59:43;;;;;;;17.05;4.22;;;7.60;99.90;;;;;;5018713;28;20061;-94
2022/01/14 13:02:18;;;;;;;19.17;4.05;;;7.60;99.90;;;;;;5034861;28;20054;-94
2022/01/14 13:04:44;;;;;;;12.23;4.40;;;7.60;99.90;;;;;;5035119;28;20045;-94
2022/01/14 13:07:11;;;;;;;17.05;4.82;;;7.80;99.90;;;;;;5018562;28;20054;-95
2022/01/14 13:09:40;;;;;;;13.63;4.70;;;7.60;99.90;;;;;;5018502;28;20057;-95
2022/01/14 13:12:06;;;;;;;20.88;9.48;;;7.60;99.90;;;;;;5018531;28;20056;-94
2022/01/14 13:14:37;;;;;;;13.30;4.45;;;7.60;99.90;;;;;;5035142;28;20053;-95